createdAt,value
2022-11-03T00:01:34.970Z,1.60
2022-11-03T00:04:02.774Z,1.50
2022-11-03T00:06:30.503Z,2.30
2022-11-03T00:08:59.766Z,1.97
2022-11-03T00:11:29.788Z,2.13
2022-11-03T00:13:57.906Z,1.60
2022-11-03T00:16:25.650Z,1.52
2022-11-03T00:18:53.595Z,1.60
2022-11-03T00:21:21.767Z,2.00
2022-11-03T00:23:50.350Z,2.45
2022-11-03T00:26:20.792Z,1.52
2022-11-03T00:28:51.480Z,2.70
2022-11-03T00:31:21.500Z,1.80
2022-11-03T00:33:49.553Z,1.70
2022-11-03T00:36:19.172Z,1.60
2022-11-03T00:38:47.550Z,1.50
2022-11-03T00:41:16.424Z,1.85
2022-11-03T00:43:44.710Z,2.35
2022-11-03T00:46:14.060Z,2.10
2022-11-03T00:48:42.301Z,1.70
2022-11-03T00:51:12.072Z,1.77
2022-11-03T00:53:41.990Z,1.33
2022-11-03T00:56:14.102Z,1.63
2022-11-03T00:58:42.411Z,1.50
2022-11-03T01:01:14.335Z,1.67
2022-11-03T01:04:03.591Z,1.52
2022-11-03T01:06:50.395Z,2.17
2022-11-03T01:09:18.333Z,2.03
2022-11-03T01:11:53.203Z,1.87
2022-11-03T01:14:20.975Z,1.92
2022-11-03T01:16:50.074Z,1.95
2022-11-03T01:19:18.014Z,1.70
2022-11-03T01:21:45.785Z,1.77
2022-11-03T01:24:13.564Z,1.50
2022-11-03T01:26:41.279Z,2.15
2022-11-03T01:29:09.051Z,1.58
2022-11-03T01:31:36.811Z,1.88
2022-11-03T01:34:05.987Z,2.13
2022-11-03T01:36:33.759Z,2.50
2022-11-03T01:39:01.487Z,1.38
2022-11-03T01:41:29.894Z,1.55
2022-11-03T01:44:29.980Z,1.70
2022-11-03T01:47:04.043Z,1.52
2022-11-03T01:49:37.278Z,1.90
2022-11-03T01:52:10.943Z,1.50
2022-11-03T01:54:40.290Z,1.92
2022-11-03T01:57:12.578Z,1.63
2022-11-03T01:59:41.172Z,2.05
2022-11-03T02:02:09.382Z,1.80
2022-11-03T02:04:39.321Z,1.80
2022-11-03T02:07:15.953Z,1.73
2022-11-03T02:09:43.689Z,1.73
2022-11-03T02:12:11.903Z,1.95
2022-11-03T02:14:44.514Z,1.50
2022-11-03T02:17:14.146Z,1.15
2022-11-03T02:19:46.322Z,2.05
2022-11-03T02:22:33.810Z,1.70
2022-11-03T02:25:12.597Z,2.38
2022-11-03T02:27:42.380Z,2.57
2022-11-03T02:30:10.533Z,1.90
2022-11-03T02:32:47.120Z,1.40
2022-11-03T02:35:21.475Z,1.73
2022-11-03T02:37:54.199Z,1.70
2022-11-03T02:40:27.362Z,1.80
2022-11-03T02:42:57.874Z,2.00
2022-11-03T02:45:27.651Z,2.08
2022-11-03T02:47:59.245Z,2.13
2022-11-03T02:50:32.225Z,1.50
2022-11-03T02:52:59.942Z,1.87
2022-11-03T02:55:36.496Z,1.70
2022-11-03T02:58:13.487Z,1.70
2022-11-03T03:00:48.442Z,1.88
2022-11-03T03:03:23.545Z,1.73
2022-11-03T03:05:55.026Z,1.70
2022-11-03T03:08:26.298Z,1.70
2022-11-03T03:10:54.914Z,1.65
2022-11-03T03:13:25.546Z,1.60
2022-11-03T03:16:07.906Z,1.73
2022-11-03T03:18:48.877Z,1.87
2022-11-03T03:21:20.225Z,1.75
2022-11-03T03:23:52.726Z,2.15
2022-11-03T03:26:27.477Z,1.75
2022-11-03T03:29:00.024Z,1.70
2022-11-03T03:31:30.630Z,1.50
2022-11-03T03:34:05.064Z,1.60
2022-11-03T03:36:40.866Z,1.85
2022-11-03T03:39:11.564Z,2.33
2022-11-03T03:41:40.275Z,1.60
2022-11-03T03:44:12.681Z,1.73
2022-11-03T03:46:45.603Z,1.50
2022-11-03T03:49:13.395Z,2.17
2022-11-03T03:51:42.574Z,2.33
2022-11-03T03:54:10.302Z,1.83
2022-11-03T03:56:43.291Z,1.70
2022-11-03T03:59:12.446Z,1.83
2022-11-03T04:01:40.206Z,1.85
2022-11-03T04:04:08.127Z,1.50
2022-11-03T04:06:35.891Z,1.75
2022-11-03T04:09:03.678Z,2.20
2022-11-03T04:11:48.884Z,1.75
2022-11-03T04:14:35.558Z,1.85
2022-11-03T04:17:21.011Z,1.65
2022-11-03T04:20:06.534Z,1.60
2022-11-03T04:22:34.860Z,1.40
2022-11-03T04:25:02.623Z,1.70
2022-11-03T04:27:32.610Z,1.60
2022-11-03T04:30:08.521Z,1.58
2022-11-03T04:32:37.057Z,1.58
2022-11-03T04:35:15.301Z,1.93
2022-11-03T04:37:47.394Z,2.30
2022-11-03T04:40:17.342Z,1.92
2022-11-03T04:42:45.723Z,1.80
2022-11-03T04:45:24.801Z,1.83
2022-11-03T04:47:53.960Z,1.77
2022-11-03T04:50:23.693Z,1.67
2022-11-03T04:52:56.036Z,1.65
2022-11-03T04:55:24.244Z,1.83
2022-11-03T04:57:57.651Z,1.73
2022-11-03T05:00:26.818Z,1.97
2022-11-03T05:02:56.402Z,1.90
2022-11-03T05:05:26.334Z,1.85
2022-11-03T05:07:56.599Z,1.70
2022-11-03T05:10:26.888Z,1.83
2022-11-03T05:12:55.493Z,1.50
2022-11-03T05:15:35.878Z,1.80
2022-11-03T05:18:14.189Z,2.00
2022-11-03T05:20:50.202Z,1.50
2022-11-03T05:23:19.475Z,2.20
2022-11-03T05:25:50.501Z,2.00
2022-11-03T05:28:25.184Z,2.28
2022-11-03T05:30:54.821Z,1.33
2022-11-03T05:33:30.327Z,1.65
2022-11-03T05:36:01.782Z,1.80
2022-11-03T05:38:32.734Z,2.07
2022-11-03T05:41:01.096Z,1.55
2022-11-03T05:43:29.896Z,1.70
2022-11-03T05:46:02.668Z,1.65
2022-11-03T05:48:34.217Z,1.80
2022-11-03T05:51:08.071Z,1.53
2022-11-03T05:53:38.727Z,1.55
2022-11-03T05:56:08.107Z,2.00
2022-11-03T05:58:37.941Z,1.60
2022-11-03T06:01:20.597Z,1.58
2022-11-03T06:03:48.454Z,2.20
2022-11-03T06:06:19.990Z,2.10
2022-11-03T06:08:48.618Z,1.85
2022-11-03T06:11:23.734Z,1.50
2022-11-03T06:13:51.468Z,1.83
2022-11-03T06:16:38.513Z,1.70
2022-11-03T06:19:20.851Z,1.60
2022-11-03T06:21:49.766Z,2.00
2022-11-03T06:24:19.682Z,1.77
2022-11-03T06:26:50.051Z,1.60
2022-11-03T06:29:20.254Z,1.57
2022-11-03T06:31:51.797Z,1.60
2022-11-03T06:34:46.692Z,1.83
2022-11-03T06:37:21.924Z,1.50
2022-11-03T06:39:50.435Z,1.80
2022-11-03T06:42:21.545Z,1.80
2022-11-03T06:44:51.286Z,1.70
2022-11-03T06:47:25.805Z,2.70
2022-11-03T06:49:55.835Z,2.15
2022-11-03T06:52:29.870Z,1.90
2022-11-03T06:55:25.980Z,1.83
2022-11-03T06:57:58.316Z,1.63
2022-11-03T07:00:33.978Z,1.73
2022-11-03T07:03:10.046Z,1.73
2022-11-03T07:05:38.980Z,1.63
2022-11-03T07:08:19.810Z,1.70
2022-11-03T07:10:48.867Z,1.55
2022-11-03T07:13:20.748Z,1.85
2022-11-03T07:15:48.572Z,1.92
2022-11-03T07:18:22.467Z,1.77
2022-11-03T07:20:50.959Z,2.10
2022-11-03T07:23:23.782Z,1.70
2022-11-03T07:25:54.762Z,1.92
2022-11-03T07:28:30.652Z,2.10
2022-11-03T07:31:00.519Z,1.73
2022-11-03T07:33:32.596Z,1.77
2022-11-03T07:36:17.175Z,2.00
2022-11-03T07:38:49.265Z,1.60
2022-11-03T07:41:20.538Z,1.90
2022-11-03T07:43:55.674Z,1.50
2022-11-03T07:46:24.353Z,1.50
2022-11-03T07:48:56.537Z,1.70
2022-11-03T07:51:26.311Z,1.88
2022-11-03T07:53:57.592Z,2.03
2022-11-03T07:56:27.908Z,1.67
2022-11-03T07:58:59.813Z,1.73
2022-11-03T08:01:30.826Z,2.10
2022-11-03T08:04:04.691Z,2.13
2022-11-03T08:06:32.613Z,1.92
2022-11-03T08:09:03.518Z,1.83
2022-11-03T08:11:31.586Z,1.77
2022-11-03T08:13:59.369Z,1.75
2022-11-03T08:16:27.425Z,2.28
2022-11-03T08:18:55.282Z,1.65
2022-11-03T08:21:24.654Z,2.75
2022-11-03T08:23:52.464Z,1.77
2022-11-03T08:26:20.438Z,1.55
2022-11-03T08:28:48.514Z,1.92
2022-11-03T08:31:20.239Z,1.73
2022-11-03T08:33:48.100Z,1.67
2022-11-03T08:36:17.111Z,1.37
2022-11-03T08:38:46.326Z,1.55
2022-11-03T08:41:14.112Z,2.03
2022-11-03T08:43:42.621Z,1.33
2022-11-03T08:46:17.127Z,1.85
2022-11-03T08:48:46.846Z,1.70
2022-11-03T08:51:18.821Z,1.70
2022-11-03T08:53:50.601Z,2.60
2022-11-03T08:56:21.863Z,1.83
2022-11-03T08:58:50.210Z,1.60
2022-11-03T09:01:18.228Z,1.80
2022-11-03T09:03:46.317Z,1.42
2022-11-03T09:06:14.156Z,1.77
2022-11-03T09:11:31.356Z,1.77
2022-11-03T09:13:59.171Z,2.30
2022-11-03T09:16:27.187Z,1.50
2022-11-03T09:18:55.375Z,1.48
2022-11-03T09:21:23.855Z,1.90
2022-11-03T09:23:51.708Z,1.73
2022-11-03T09:26:19.525Z,1.83
2022-11-03T09:28:49.419Z,1.95
2022-11-03T09:31:17.248Z,1.40
2022-11-03T09:33:45.078Z,2.00
2022-11-03T09:36:12.831Z,1.77
2022-11-03T09:38:40.626Z,1.90
2022-11-03T09:41:18.743Z,2.20
2022-11-03T09:43:57.862Z,1.90
2022-11-03T09:46:26.100Z,1.90
2022-11-03T09:48:55.367Z,1.83
2022-11-03T09:51:24.672Z,1.57
2022-11-03T09:53:52.507Z,1.90
2022-11-03T09:56:23.855Z,1.85
2022-11-03T09:58:54.519Z,2.20
2022-11-03T10:01:24.477Z,1.65
2022-11-03T10:03:52.649Z,1.70
2022-11-03T10:06:21.193Z,1.88
2022-11-03T10:08:50.227Z,1.42
2022-11-03T10:11:18.086Z,2.00
2022-11-03T10:13:50.337Z,2.85
2022-11-03T10:16:21.690Z,1.70
2022-11-03T10:18:51.652Z,1.83
2022-11-03T10:21:20.776Z,1.92
2022-11-03T10:23:50.223Z,1.77
2022-11-03T10:26:19.706Z,1.67
2022-11-03T10:29:01.787Z,1.80
2022-11-03T10:31:35.099Z,1.75
2022-11-03T10:34:05.273Z,1.45
2022-11-03T10:36:34.518Z,1.42
2022-11-03T10:39:24.717Z,1.40
2022-11-03T10:41:58.290Z,1.70
2022-11-03T10:44:28.197Z,1.40
2022-11-03T10:47:00.455Z,1.48
2022-11-03T10:49:31.558Z,1.60
2022-11-03T10:52:09.290Z,2.15
2022-11-03T10:54:38.029Z,1.57
2022-11-03T10:57:06.005Z,1.50
2022-11-03T10:59:37.463Z,1.17
2022-11-03T11:02:18.434Z,1.60
2022-11-03T11:04:50.054Z,1.75
2022-11-03T11:07:25.068Z,1.60
2022-11-03T11:09:53.837Z,1.40
2022-11-03T11:12:24.754Z,1.63
2022-11-03T11:15:00.472Z,1.70
2022-11-03T11:17:47.612Z,1.70
2022-11-03T11:20:37.370Z,2.70
2022-11-03T11:23:47.871Z,1.80
2022-11-03T11:26:31.908Z,1.75
2022-11-03T11:29:44.374Z,1.85
2022-11-03T11:32:57.008Z,1.55
2022-11-03T11:36:04.393Z,1.77
2022-11-03T11:39:09.347Z,1.88
2022-11-03T11:42:08.953Z,1.80
2022-11-03T11:45:03.448Z,1.70
2022-11-03T11:47:36.185Z,1.60
2022-11-03T11:50:34.392Z,1.87
2022-11-03T11:53:19.138Z,1.40
2022-11-03T11:55:52.922Z,2.05
2022-11-03T11:58:33.796Z,1.70
2022-11-03T12:01:03.183Z,1.60
2022-11-03T12:03:35.805Z,1.50
2022-11-03T12:06:04.029Z,2.15
2022-11-03T12:08:32.934Z,1.70
2022-11-03T12:11:04.358Z,1.90
2022-11-03T12:13:47.489Z,1.80
2022-11-03T12:16:35.113Z,1.67
2022-11-03T12:19:38.069Z,1.60
2022-11-03T12:22:07.536Z,1.55
2022-11-03T12:24:50.526Z,1.45
2022-11-03T12:27:40.057Z,1.63
2022-11-03T12:30:14.386Z,1.50
2022-11-03T12:32:42.146Z,1.10
2022-11-03T12:35:11.552Z,1.35
2022-11-03T12:37:39.490Z,1.40
2022-11-03T12:40:08.620Z,1.60
2022-11-03T12:42:38.770Z,1.90
2022-11-03T12:45:08.331Z,2.17
2022-11-03T12:47:36.051Z,2.20
2022-11-03T12:50:04.405Z,1.60
2022-11-03T12:52:32.143Z,1.65
2022-11-03T12:55:00.438Z,2.13
2022-11-03T12:57:28.332Z,1.10
2022-11-03T12:59:57.505Z,1.60
2022-11-03T13:02:25.414Z,2.17
2022-11-03T13:04:53.362Z,2.15
2022-11-03T13:07:26.797Z,1.30
2022-11-03T13:09:58.289Z,1.25
2022-11-03T13:12:37.638Z,1.73
2022-11-03T13:15:10.061Z,1.60
2022-11-03T13:18:07.135Z,1.58
2022-11-03T13:20:25.605Z,1.60
2022-11-03T13:22:53.376Z,1.38
2022-11-03T13:25:21.341Z,1.92
2022-11-03T13:27:53.711Z,1.55
2022-11-03T13:30:49.133Z,1.80
2022-11-03T13:33:16.935Z,1.37
2022-11-03T13:35:44.765Z,1.40
2022-11-03T13:38:12.607Z,1.60
2022-11-03T13:40:57.266Z,1.25
2022-11-03T13:43:26.069Z,1.90
2022-11-03T13:45:58.459Z,1.40
2022-11-03T13:51:17.524Z,1.40
2022-11-03T14:04:48.011Z,1.60
2022-11-03T14:07:18.771Z,1.40
2022-11-03T14:09:46.954Z,1.20
2022-11-03T14:12:32.824Z,1.73
2022-11-03T14:15:01.478Z,1.60
2022-11-03T14:17:31.021Z,2.30
2022-11-03T14:20:03.667Z,1.42
2022-11-03T14:22:32.226Z,1.70
2022-11-03T14:25:01.038Z,1.60
2022-11-03T14:27:29.072Z,1.25
2022-11-03T14:29:56.900Z,1.77
2022-11-03T14:32:24.820Z,1.40
2022-11-03T14:34:54.038Z,1.42
2022-11-03T14:37:22.648Z,1.60
2022-11-03T14:39:50.412Z,1.60
2022-11-03T14:42:17.216Z,1.50
2022-11-03T14:44:46.435Z,1.50
2022-11-03T14:47:17.499Z,2.28
2022-11-03T14:49:45.831Z,1.93
2022-11-03T14:52:15.528Z,1.20
2022-11-03T14:54:43.753Z,1.20
2022-11-03T14:57:11.553Z,2.20
2022-11-03T14:59:39.274Z,1.10
2022-11-03T15:02:07.210Z,2.00
2022-11-03T15:04:35.067Z,1.33
2022-11-03T15:07:02.847Z,1.50
2022-11-03T15:09:31.998Z,1.40
2022-11-03T15:11:59.657Z,1.40
2022-11-03T15:14:27.403Z,1.53
2022-11-03T15:16:55.186Z,1.88
2022-11-03T15:19:23.229Z,1.40
2022-11-03T15:21:50.895Z,1.40
2022-11-03T15:27:07.646Z,1.10
2022-11-03T15:29:35.924Z,1.92
2022-11-03T15:32:03.611Z,1.40
2022-11-03T15:34:31.354Z,1.70
2022-11-03T15:36:59.065Z,1.63
2022-11-03T15:39:29.562Z,1.33
2022-11-03T15:41:57.350Z,1.40
2022-11-03T15:44:26.448Z,1.70
2022-11-03T15:46:56.633Z,1.55
2022-11-03T15:49:24.540Z,1.30
2022-11-03T15:51:52.401Z,1.53
2022-11-03T15:54:20.455Z,1.15
2022-11-03T15:56:48.162Z,1.50
2022-11-03T15:59:15.780Z,1.35
2022-11-03T16:01:44.914Z,1.40
2022-11-03T16:04:12.865Z,1.30
2022-11-03T16:07:06.297Z,1.42
2022-11-03T16:09:28.274Z,1.30
2022-11-03T16:11:55.912Z,1.60
2022-11-03T16:14:24.590Z,1.17
2022-11-03T16:16:53.681Z,1.70
2022-11-03T16:19:21.410Z,1.40
2022-11-03T16:21:49.374Z,1.67
2022-11-03T16:24:17.117Z,1.50
2022-11-03T16:26:45.106Z,1.60
2022-11-03T16:29:13.038Z,1.60
2022-11-03T16:31:40.761Z,1.90
2022-11-03T16:34:09.934Z,1.98
2022-11-03T16:36:37.768Z,1.60
2022-11-03T16:39:05.509Z,1.80
2022-11-03T16:41:33.325Z,1.60
2022-11-03T16:44:01.660Z,1.77
2022-11-03T16:46:29.477Z,1.58
2022-11-03T16:48:57.243Z,1.13
2022-11-03T16:51:26.871Z,1.83
2022-11-03T16:53:57.106Z,1.50
2022-11-03T16:56:24.938Z,1.80
2022-11-03T16:58:52.579Z,2.00
2022-11-03T17:01:20.352Z,1.70
2022-11-03T17:03:48.265Z,2.20
2022-11-03T17:06:16.138Z,2.17
2022-11-03T17:08:53.679Z,1.65
2022-11-03T17:11:35.868Z,1.60
2022-11-03T17:14:05.733Z,1.83
2022-11-03T17:16:34.852Z,1.70
2022-11-03T17:19:02.642Z,1.70
2022-11-03T17:21:30.394Z,1.60
2022-11-03T17:23:59.921Z,1.45
2022-11-03T17:26:37.734Z,1.63
2022-11-03T17:29:14.643Z,2.05
2022-11-03T17:31:42.455Z,1.60
2022-11-03T17:34:12.042Z,1.77
2022-11-03T17:36:40.168Z,1.70
2022-11-03T17:39:10.046Z,1.85
2022-11-03T17:41:37.748Z,1.85
2022-11-03T17:44:10.976Z,2.10
2022-11-03T17:46:38.782Z,1.98
2022-11-03T17:49:06.544Z,2.33
2022-11-03T17:51:35.627Z,2.22
2022-11-03T17:54:08.055Z,2.13
2022-11-03T17:56:37.123Z,2.30
2022-11-03T17:59:05.352Z,1.92
2022-11-03T18:01:33.234Z,2.38
2022-11-03T18:04:02.568Z,2.10
2022-11-03T18:06:30.724Z,2.40
2022-11-03T18:08:59.289Z,2.07
2022-11-03T18:11:48.128Z,1.92
2022-11-03T18:14:17.276Z,2.13
2022-11-03T18:16:45.426Z,2.22
2022-11-03T18:19:14.664Z,2.63
2022-11-03T18:21:42.821Z,2.50
2022-11-03T18:24:13.019Z,2.22
2022-11-03T18:26:41.362Z,2.67
2022-11-03T18:29:09.381Z,2.50
2022-11-03T18:31:41.155Z,2.47
2022-11-03T18:34:15.650Z,2.73
2022-11-03T18:36:44.201Z,2.33
2022-11-03T18:39:17.893Z,3.00
2022-11-03T18:41:45.884Z,2.75
2022-11-03T18:44:17.877Z,3.75
2022-11-03T18:46:47.396Z,2.70
2022-11-03T18:49:15.683Z,2.90
2022-11-03T18:51:47.858Z,3.03
2022-11-03T18:56:50.858Z,3.03
2022-11-03T18:59:23.355Z,3.47
2022-11-03T19:01:53.004Z,3.28
2022-11-03T19:04:20.805Z,2.83
2022-11-03T19:06:50.169Z,2.50
2022-11-03T19:09:21.371Z,3.08
2022-11-03T19:11:50.646Z,3.30
2022-11-03T19:14:23.183Z,3.10
2022-11-03T19:19:41.119Z,3.00
2022-11-03T19:22:13.018Z,3.38
2022-11-03T19:24:41.303Z,2.97
2022-11-03T19:27:15.211Z,2.88
2022-11-03T19:29:43.413Z,2.92
2022-11-03T19:32:18.475Z,3.50
2022-11-03T19:34:46.603Z,3.30
2022-11-03T19:37:15.550Z,3.80
2022-11-03T19:39:43.290Z,3.58
2022-11-03T19:42:28.561Z,3.72
2022-11-03T19:44:57.910Z,3.38
2022-11-03T19:47:31.669Z,3.75
2022-11-03T19:50:01.773Z,4.17
2022-11-03T19:52:31.216Z,3.60
2022-11-03T19:55:01.775Z,4.25
2022-11-03T19:57:29.512Z,4.03
2022-11-03T19:59:59.051Z,4.82
2022-11-03T20:02:29.024Z,5.10
2022-11-03T20:04:56.810Z,5.20
2022-11-03T20:07:31.005Z,4.93
2022-11-03T20:10:00.748Z,5.35
2022-11-03T20:12:30.596Z,5.55
2022-11-03T20:14:58.392Z,6.13
2022-11-03T20:17:26.038Z,5.80
2022-11-03T20:19:55.085Z,6.05
2022-11-03T20:22:28.597Z,5.78
2022-11-03T20:24:59.470Z,5.88
2022-11-03T20:27:27.293Z,6.13
2022-11-03T20:29:55.417Z,6.15
2022-11-03T20:32:23.086Z,5.85
2022-11-03T20:34:50.749Z,6.10
2022-11-03T20:37:21.324Z,6.60
2022-11-03T20:39:49.538Z,6.53
2022-11-03T20:42:20.954Z,7.00
2022-11-03T20:44:48.795Z,6.85
2022-11-03T20:47:17.359Z,6.53
2022-11-03T20:49:45.135Z,7.72
2022-11-03T20:52:14.340Z,7.40
2022-11-03T20:54:44.166Z,7.32
2022-11-03T20:57:13.020Z,7.38
2022-11-03T20:59:41.243Z,6.85
2022-11-03T21:02:12.033Z,6.63
2022-11-03T21:04:40.406Z,6.73
2022-11-03T21:07:10.340Z,6.90
2022-11-03T21:09:38.686Z,6.25
2022-11-03T21:12:12.036Z,6.95
2022-11-03T21:15:02.993Z,7.28
2022-11-03T21:17:48.399Z,6.60
2022-11-03T21:20:16.625Z,6.28
2022-11-03T21:22:53.631Z,6.82
2022-11-03T21:25:24.450Z,5.38
2022-11-03T21:27:54.827Z,4.85
2022-11-03T21:30:23.646Z,3.50
2022-11-03T21:32:51.570Z,2.30
2022-11-03T21:35:21.767Z,1.90
2022-11-03T21:37:49.773Z,1.20
2022-11-03T21:40:17.848Z,0.80
2022-11-03T21:43:03.112Z,0.80
2022-11-03T21:45:32.548Z,0.70
2022-11-03T21:48:18.207Z,0.52
2022-11-03T21:50:46.156Z,0.70
2022-11-03T21:53:14.212Z,0.70
2022-11-03T21:55:42.339Z,0.80
2022-11-03T21:58:10.313Z,1.60
2022-11-03T22:00:39.363Z,1.30
2022-11-03T22:03:07.458Z,0.80
2022-11-03T22:05:35.271Z,0.70
2022-11-03T22:08:02.959Z,0.90
2022-11-03T22:10:30.666Z,0.50
2022-11-03T22:12:58.340Z,0.60
2022-11-03T22:15:43.533Z,0.70
2022-11-03T22:18:12.876Z,1.40
2022-11-03T22:20:58.372Z,0.70
2022-11-03T22:23:43.587Z,0.90
2022-11-03T22:26:29.401Z,0.60
2022-11-03T22:29:12.418Z,0.68
2022-11-03T22:31:42.837Z,0.40
2022-11-03T22:34:29.313Z,0.40
2022-11-03T22:36:57.172Z,0.40
2022-11-03T22:39:42.573Z,0.73
2022-11-03T22:42:34.813Z,0.82
2022-11-03T22:45:20.296Z,0.80
2022-11-03T22:47:48.074Z,0.60
2022-11-03T22:50:17.342Z,0.80
2022-11-03T22:52:44.966Z,0.80
2022-11-03T22:55:11.629Z,1.00
2022-11-03T22:57:39.359Z,0.70
2022-11-03T23:00:07.898Z,0.60
2022-11-03T23:02:35.716Z,0.60
2022-11-03T23:05:03.489Z,0.60
2022-11-03T23:07:35.893Z,0.38
2022-11-03T23:10:08.910Z,0.68
2022-11-03T23:12:36.888Z,0.90
2022-11-03T23:15:22.753Z,0.70
2022-11-03T23:18:08.174Z,0.57
2022-11-03T23:20:56.147Z,0.80
2022-11-03T23:23:42.832Z,0.60
2022-11-03T23:26:10.597Z,0.50
2022-11-03T23:28:38.425Z,0.70
2022-11-03T23:31:06.633Z,0.50
2022-11-03T23:33:34.464Z,0.68
2022-11-03T23:36:04.156Z,0.60
2022-11-03T23:38:34.273Z,0.50
2022-11-03T23:41:02.688Z,0.65
2022-11-03T23:43:30.390Z,0.50
2022-11-03T23:46:16.150Z,0.40
2022-11-03T23:48:46.754Z,0.55
2022-11-03T23:51:15.085Z,0.50
2022-11-03T23:53:45.128Z,0.68
2022-11-03T23:56:31.733Z,0.60
2022-11-03T23:58:59.805Z,0.50
